Potrero (157, 448) Station Data

Red Flag Warning: No
Fire Weather Zone: 250
SDGE Region: Mountain Empire
Lat/Lon: 32.604/-116.607

Observations

Time Wind Speed/Gust Temp(F) RH Fuel Moist Fuel Temp(F) Dewpt(F) Tmax(F) Tmin(F) Accum Precip 10-min Precip SL Press(mb)
4/26 2:40am 107 2 G 3 51° 74% - - 43° 51.6° 48° - - -
4/26 2:30am 125 2 G 5 49° 80% - - 43° 51.6° 48° - - -
4/26 2:20am 145 4 G 7 49° 79% - - 43° 51.6° 48° - - -
4/26 2:10am 133 4 G 5 50° 75% - - 42° 51.6° 48° - - -
4/26 2:00am 117 3 G 5 51° 72% - - 42° 51.6° 48° - - -
4/26 1:50am 96 2 G 4 51° 75% - - 43° 51.6° 48° - - -
4/26 1:40am 114 4 G 6 49° 81% - - 43° 50.7° 48° - - -
4/26 1:30am 138 4 G 8 49° 80% - - 43° 50.7° 48° - - -
4/26 1:20am 136 3 G 6 50° 77% - - 43° 50.7° 48.1° - - -
4/26 1:10am 112 1 G 3 49° 80% - - 44° 50.2° 48.1° - - -
4/26 1:00am 145 3 G 4 49° 80% - - 43° 49.6° 48.1° - - -
4/26 12:50am 133 3 G 4 49° 83% - - 44° 49.6° 48.1° - - -
4/26 12:40am 124 4 G 6 48° 83% - - 43° 49.5° 48.2° - - -
4/26 12:30am 131 3 G 6 49° 82% - - 43° 49.5° 48.4° - - -
4/26 12:20am 125 4 G 7 49° 81% - - 44° 49.5° 48.8° - - -
4/26 12:10am 135 5 G 7 49° 81% - - 44° 49.5° 49° - - -
4/26 12:00am 138 3 G 4 50° 80% - - 44° 61.5° 48.1° - - -
4/25 11:50pm 161 4 G 6 50° 78% - - 44° 61.5° 48.1° - - -
4/25 11:40pm 43 3 G 5 51° 77% - - 44° 61.5° 48.1° - - -
4/25 11:30pm 19 6 G 7 51° 79% - - 45° 61.5° 48.1° - - -
4/25 11:20pm 2 5 G 7 50° 79% - - 44° 61.5° 48.1° - - -
4/25 11:10pm 355 5 G 7 49° 81% - - 43° 61.5° 48.1° - - -
4/25 11:00pm 347 6 G 8 49° 80% - - 43° 61.5° 48.1° - - -
4/25 10:50pm 352 5 G 7 49° 80% - - 43° 61.5° 48.1° - - -
4/25 10:40pm 350 5 G 8 49° 80% - - 43° 61.5° 48.1° - - -
4/25 10:30pm 2 5 G 6 49° 80% - - 43° 61.5° 48.1° - - -
4/25 10:20pm 334 4 G 6 49° 80% - - 44° 61.5° 48.1° - - -
4/25 10:10pm 318 5 G 7 50° 80% - - 44° 61.5° 48.1° - - -
4/25 10:00pm 318 5 G 7 50° 80% - - 44° 61.5° 48.1° - - -
4/25 9:50pm 306 5 G 7 50° 80% - - 44° 61.5° 48.1° - - -
4/25 9:40pm 308 4 G 5 50° 79% - - 44° 61.5° 48.1° - - -
4/25 9:30pm 327 4 G 5 50° 80% - - 44° 61.5° 48.1° - - -
4/25 9:20pm 334 4 G 6 50° 82% - - 45° 61.5° 48.1° - - -
4/25 9:10pm 314 4 G 6 50° 88% - - 47° 61.5° 48.1° - - -
4/25 9:00pm 306 4 G 6 50° 89% - - 47° 61.5° 48.1° - - -
4/25 8:50pm 305 4 G 7 50° 87% - - 47° 61.5° 48.1° - - -
4/25 8:40pm 305 5 G 7 51° 84% - - 46° 61.5° 48.1° - - -
4/25 8:30pm 305 3 G 5 51° 84% - - 46° 61.5° 48.1° - - -
4/25 8:20pm 290 3 G 6 51° 83% - - 46° 61.5° 48.1° - - -
4/25 8:10pm 273 3 G 5 52° 82% - - 47° 61.5° 48.1° - - -
4/25 8:00pm 293 5 G 7 52° 82% - - 47° 61.5° 48.1° - - -
4/25 7:50pm 288 5 G 7 53° 81% - - 47° 61.5° 48.1° - - -
4/25 7:40pm 287 7 G 10 53° 81% - - 47° 61.5° 48.1° - - -
4/25 7:30pm 289 9 G 12 53° 81% - - 48° 61.5° 48.1° - - -
4/25 7:20pm 280 8 G 12 53° 81% - - 48° 61.5° 48.1° - - -
4/25 7:10pm 283 9 G 13 53° 82% - - 48° 61.5° 48.1° - - -
4/25 7:00pm 284 10 G 13 53° 82% - - 48° 61.5° 48.1° - - -
4/25 6:50pm 282 11 G 14 54° 81% - - 48° 61.5° 48.1° - - -
4/25 6:40pm 283 10 G 14 54° 80% - - 48° 61.5° 48.1° - - -
4/25 6:30pm 285 10 G 14 54° 78% - - 48° 61.5° 48.1° - - -
4/25 6:20pm 286 10 G 14 55° 78% - - 48° 61.5° 48.1° - - -
4/25 6:10pm 285 11 G 16 55° 76% - - 48° 61.5° 48.1° - - -
4/25 6:00pm 286 12 G 19 55° 75% - - 48° 61.5° 48.1° - - -
4/25 5:50pm 280 11 G 18 56° 74% - - 48° 61.5° 48.1° - - -
4/25 5:40pm 279 11 G 16 56° 74% - - 48° 61.5° 48.1° - - -
4/25 5:30pm 290 11 G 17 56° 72% - - 47° 61.5° 48.1° - - -
4/25 5:20pm 291 13 G 17 56° 71% - - 47° 61.5° 48.1° - - -
4/25 5:10pm 293 12 G 17 57° 70% - - 47° 61.5° 48.1° - - -
4/25 5:00pm 294 12 G 16 57° 69% - - 47° 61.5° 48.1° - - -
4/25 4:50pm 296 12 G 18 57° 68% - - 47° 61.5° 48.1° - - -
4/25 4:40pm 298 12 G 18 58° 66% - - 47° 61.5° 48.1° - - -
4/25 4:30pm 304 14 G 18 58° 64% - - 46° 61.5° 48.1° - - -
4/25 4:20pm 303 12 G 19 59° 64% - - 47° 61.5° 48.1° - - -
4/25 4:10pm 301 13 G 20 60° 63% - - 47° 61.5° 48.1° - - -
4/25 4:00pm 308 12 G 17 60° 63% - - 47° 61.5° 48.1° - - -
4/25 3:50pm 287 11 G 17 59° 64% - - 47° 61.5° 48.1° - - -
4/25 3:40pm 296 11 G 16 59° 64% - - 47° 61.5° 48.1° - - -
4/25 3:30pm 288 10 G 16 59° 64% - - 47° 61.5° 48.1° - - -
4/25 3:20pm 291 9 G 14 59° 63% - - 47° 61.5° 48.1° - - -
4/25 3:10pm 282 9 G 15 60° 63% - - 47° 61.5° 48.1° - - -
4/25 3:00pm 283 11 G 17 59° 63% - - 47° 61.5° 48.1° - - -
4/25 2:50pm 285 11 G 18 60° 63% - - 47° 61.5° 48.1° - - -
4/25 2:40pm 296 10 G 17 60° 62% - - 47° 61.5° 48.1° - - -
4/25 2:30pm 308 10 G 19 60° 61% - - 47° 61.5° 48.1° - - -
4/25 2:20pm 296 12 G 19 60° 61% - - 47° 61.5° 48.1° - - -
4/25 2:10pm 293 12 G 20 60° 60% - - 47° 61.5° 48.1° - - -
4/25 2:00pm 297 11 G 17 60° 61% - - 47° 61.5° 48.1° - - -
4/25 1:50pm 288 12 G 20 60° 61% - - 47° 61.5° 48.1° - - -
4/25 1:40pm 294 14 G 21 60° 59% - - 46° 61.5° 48.1° - - -
4/25 1:30pm 284 12 G 20 61° 58% - - 46° 61.5° 48.1° - - -
4/25 1:20pm 280 12 G 19 60° 57% - - 45° 61.5° 48.1° - - -
4/25 1:10pm 282 14 G 20 60° 56% - - 44° 61.5° 48.1° - - -
4/25 1:00pm 275 13 G 23 61° 55% - - 44° 61.5° 48.1° - - -
4/25 12:50pm 281 13 G 24 61° 55% - - 45° 61.5° 48.1° - - -
4/25 12:40pm 275 13 G 22 61° 55% - - 44° 61.4° 48.1° - - -
4/25 12:30pm 285 12 G 19 61° 55% - - 45° 61.4° 48.1° - - -
4/25 12:20pm 280 9 G 16 60° 57% - - 44° 60.9° 48.1° - - -
4/25 12:10pm 282 11 G 18 59° 58% - - 45° 60.2° 48.1° - - -
4/25 12:00pm 289 12 G 19 59° 58% - - 44° 60.2° 48.1° - - -
4/25 11:50am 284 11 G 19 59° 59% - - 45° 60.2° 48.1° - - -
4/25 11:40am 289 13 G 18 59° 58% - - 44° 60.2° 48.1° - - -
4/25 11:30am 303 10 G 18 59° 59% - - 45° 59.5° 48.1° - - -
4/25 11:20am 290 14 G 21 58° 60% - - 44° 58.6° 48.1° - - -
4/25 11:10am 287 11 G 18 57° 61% - - 44° 58.2° 48.1° - - -
4/25 11:00am 291 9 G 17 57° 65% - - 45° 57.7° 48.1° - - -
4/25 10:50am 275 9 G 17 57° 67% - - 46° 57.4° 48.1° - - -
4/25 10:40am 273 10 G 16 55° 71% - - 46° 56.3° 48.1° - - -
4/25 10:30am 280 10 G 18 56° 71% - - 46° 56.3° 48.1° - - -
4/25 10:20am 288 11 G 17 55° 70% - - 45° 56° 48.1° - - -
4/25 10:10am 287 12 G 18 55° 70% - - 45° 56° 48.1° - - -
4/25 10:00am 284 12 G 19 55° 72% - - 47° 56° 48.1° - - -
4/25 9:50am 280 12 G 18 55° 72% - - 46° 55.5° 48.1° - - -
4/25 9:40am 288 13 G 22 54° 72% - - 45° 54.8° 48.1° - - -
4/25 9:30am 287 12 G 16 54° 75% - - 46° 54.6° 48.1° - - -
4/25 9:20am 287 12 G 17 53° 76% - - 46° 53.7° 48.1° - - -
4/25 9:10am 289 12 G 17 53° 77% - - 46° 53.5° 48.1° - - -
4/25 9:00am 287 12 G 17 52° 81% - - 47° 52.9° 48.1° - - -
4/25 8:50am 288 11 G 17 52° 82% - - 47° 52.3° 48.1° - - -
4/25 8:40am 282 11 G 15 51° 91% - - 49° 51.7° 48.1° - - -
4/25 8:30am 281 9 G 15 51° 100% - - 51° 51.5° 48.1° - - -
4/25 8:20am 268 9 G 13 50° 100% - - 50° 50.4° 48.1° - - -
4/25 8:10am 263 10 G 14 49° 100% - - 49° 50.1° 48.1° - - -
4/25 8:00am 255 7 G 12 50° 100% - - 50° 50.1° 48.1° - - -
4/25 7:50am 253 7 G 11 49° 100% - - 49° 49.6° 48.1° - - -
4/25 7:40am 246 7 G 11 49° 100% - - 49° 49.1° 48.1° - - -
4/25 7:30am 257 7 G 11 49° 100% - - 49° 49.1° 48.1° - - -
4/25 7:20am 241 7 G 10 49° 100% - - 49° 49.1° 48.1° - - -
4/25 7:10am 247 6 G 10 49° 100% - - 49° 49.1° 48.1° - - -
4/25 7:00am 241 6 G 9 49° 100% - - 49° 49.1° 48.1° - - -
4/25 6:50am 242 6 G 8 49° 100% - - 49° 49° 48.1° - - -
4/25 6:40am 241 6 G 9 49° 100% - - 49° 49° 48.1° - - -
4/25 6:30am 225 5 G 7 49° 100% - - 49° 49° 48.1° - - -
4/25 6:20am 243 5 G 8 49° 100% - - 49° 49° 48.1° - - -
4/25 6:10am 236 5 G 8 49° 100% - - 49° 49° 48.1° - - -
4/25 6:00am 218 4 G 7 49° 100% - - 49° 49° 48.1° - - -
4/25 5:50am 200 4 G 7 49° 100% - - 49° 48.8° 48.1° - - -
4/25 5:40am 200 5 G 7 49° 100% - - 49° 48.8° 48.1° - - -
4/25 5:30am 203 4 G 8 49° 100% - - 49° 48.8° 48.1° - - -
4/25 5:20am 205 4 G 6 49° 100% - - 49° 48.8° 48.1° - - -
4/25 5:10am 235 4 G 8 49° 100% - - 49° 48.8° 48.1° - - -
4/25 5:00am 219 5 G 7 49° 100% - - 49° 48.8° 48.1° - - -
4/25 4:50am 219 4 G 8 49° 100% - - 49° 48.8° 48.1° - - -
4/25 4:40am 223 4 G 7 48° 100% - - 48° 48.8° 48.1° - - -
4/25 4:30am 231 4 G 9 48° 100% - - 48° 48.8° 48.1° - - -
4/25 4:20am 204 6 G 10 48° 100% - - 48° 48.8° 48.1° - - -
4/25 4:10am 201 3 G 7 49° 100% - - 49° 48.8° 48.2° - - -
4/25 4:00am 191 4 G 7 49° 100% - - 49° 48.8° 48.2° - - -
4/25 3:50am 197 4 G 7 49° 100% - - 49° 48.8° 48.2° - - -
4/25 3:40am 205 4 G 9 49° 100% - - 49° 48.8° 48.2° - - -
4/25 3:30am 199 5 G 9 49° 100% - - 49° 48.8° 48.2° - - -
4/25 3:20am 238 4 G 9 48° 100% - - 48° 48.8° 48.2° - - -
4/25 3:10am 242 3 G 6 49° 100% - - 49° 48.8° 48.2° - - -
4/25 3:00am 224 3 G 6 49° 100% - - 49° 48.8° 48.2° - - -
4/25 2:50am 232 4 G 8 49° 100% - - 49° 48.8° 48.2° - - -
4/25 2:40am 224 5 G 8 49° 100% - - 49° 48.8° 48.2° - - -
4/25 2:30am 230 5 G 10 49° 100% - - 49° 48.8° 48.2° - - -
4/25 2:20am 221 5 G 9 49° 100% - - 49° 48.8° 48.2° - - -
4/25 2:10am 218 5 G 9 48° 100% - - 49° 48.8° 48.2° - - -
4/25 2:00am 218 5 G 8 49° 100% - - 49° 48.8° 48.2° - - -
4/25 1:50am 214 5 G 8 49° 100% - - 49° 48.8° 48.2° - - -
4/25 1:40am 200 5 G 8 49° 100% - - 49° 48.8° 48.2° - - -
4/25 1:30am 194 4 G 8 49° 100% - - 49° 48.8° 48.2° - - -
4/25 1:20am 194 6 G 9 48° 100% - - 48° 48.8° 48.2° - - -
4/25 1:10am 171 6 G 8 48° 100% - - 48° 48.8° 48.2° - - -
4/25 1:00am 181 5 G 8 49° 100% - - 49° 48.8° 48.2° - - -
4/25 12:50am 191 5 G 10 49° 100% - - 49° 48.8° 48.3° - - -
4/25 12:40am 192 6 G 10 49° 100% - - 49° 48.8° 48.3° - - -
4/25 12:30am 188 7 G 10 48° 100% - - 48° 48.8° 48.3° - - -
4/25 12:20am 181 6 G 10 49° 100% - - 49° 48.8° 48.3° - - -
4/25 12:10am 201 4 G 8 49° 100% - - 49° 48.8° 48.3° - - -
4/25 12:00am 259 6 G 10 48° 100% - - 48° 65.2° 45.5° - - -
4/24 11:50pm 255 6 G 10 48° 100% - - 48° 65.2° 45.5° - - -
4/24 11:40pm 266 7 G 10 48° 100% - - 48° 65.2° 45.5° - - -
4/24 11:30pm 250 5 G 14 49° 100% - - 49° 65.2° 45.5° - - -
4/24 11:20pm 251 6 G 11 49° 100% - - 49° 65.2° 45.5° - - -
4/24 11:10pm 238 5 G 8 49° 100% - - 49° 65.2° 45.5° - - -
4/24 11:00pm 240 5 G 8 49° 100% - - 49° 65.2° 45.5° - - -
4/24 10:50pm 228 4 G 8 49° 100% - - 49° 65.2° 45.5° - - -
4/24 10:40pm 202 4 G 7 49° 100% - - 49° 65.2° 45.5° - - -
4/24 10:30pm 214 3 G 7 49° 100% - - 49° 65.2° 45.5° - - -
4/24 10:20pm 219 3 G 6 50° 100% - - 50° 65.2° 45.5° - - -
4/24 10:10pm 200 3 G 6 50° 100% - - 50° 65.2° 45.5° - - -
4/24 10:00pm 228 3 G 5 50° 100% - - 50° 65.2° 45.5° - - -
4/24 9:50pm 247 4 G 6 50° 100% - - 50° 65.2° 45.5° - - -
4/24 9:40pm 240 3 G 5 51° 100% - - 51° 65.2° 45.5° - - -
4/24 9:30pm 285 5 G 8 50° 100% - - 50° 65.2° 45.5° - - -
4/24 9:20pm 285 6 G 10 50° 100% - - 50° 65.2° 45.5° - - -
4/24 9:10pm 290 8 G 12 50° 100% - - 51° 65.2° 45.5° - - -
4/24 9:00pm 295 10 G 14 51° 100% - - 51° 65.2° 45.5° - - -
4/24 8:50pm 294 9 G 12 51° 100% - - 51° 65.2° 45.5° - - -
4/24 8:40pm 298 7 G 11 51° 100% - - 51° 65.2° 45.5° - - -
4/24 8:30pm 284 6 G 9 52° 100% - - 52° 65.2° 45.5° - - -
4/24 8:20pm 267 6 G 9 52° 100% - - 52° 65.2° 45.5° - - -
4/24 8:10pm 265 6 G 12 52° 100% - - 52° 65.2° 45.5° - - -
4/24 8:00pm 281 4 G 7 52° 99% - - 52° 65.2° 45.5° - - -
4/24 7:50pm 276 5 G 9 53° 95% - - 51° 65.2° 45.5° - - -
4/24 7:40pm 275 6 G 10 53° 92% - - 51° 65.2° 45.5° - - -
4/24 7:30pm 280 8 G 12 54° 88% - - 50° 65.2° 45.5° - - -
4/24 7:20pm 284 8 G 12 54° 83% - - 49° 65.2° 45.5° - - -
4/24 7:10pm 291 7 G 11 55° 80% - - 49° 65.2° 45.5° - - -
4/24 7:00pm 295 8 G 12 56° 77% - - 49° 65.2° 45.5° - - -
4/24 6:50pm 294 9 G 13 56° 76% - - 49° 65.2° 45.5° - - -
4/24 6:40pm 293 10 G 15 57° 74% - - 48° 65.2° 45.5° - - -
4/24 6:30pm 286 10 G 16 57° 71% - - 48° 65.2° 45.5° - - -
4/24 6:20pm 279 11 G 16 58° 70% - - 48° 65.2° 45.5° - - -
4/24 6:10pm 283 12 G 17 58° 69% - - 48° 65.2° 45.5° - - -
4/24 6:00pm 278 11 G 18 59° 66% - - 48° 65.2° 45.5° - - -